sensor_id;sensor_type;location;lat;lon;timestamp;temperature;humidity
36280;DHT22;22317;47.936;12.742;2022-12-29T00:02:14;-0.10;57.20
36280;DHT22;22317;47.936;12.742;2022-12-29T00:04:40;-0.10;57.20
36280;DHT22;22317;47.936;12.742;2022-12-29T00:07:06;-0.20;57.20
36280;DHT22;22317;47.936;12.742;2022-12-29T00:09:33;-0.20;57.20
36280;DHT22;22317;47.936;12.742;2022-12-29T00:11:59;-0.20;57.10
36280;DHT22;22317;47.936;12.742;2022-12-29T00:14:26;-0.20;57.20
36280;DHT22;22317;47.936;12.742;2022-12-29T00:17:11;-0.30;57.00
36280;DHT22;22317;47.936;12.742;2022-12-29T00:19:37;-0.30;57.10
36280;DHT22;22317;47.936;12.742;2022-12-29T00:22:21;-0.30;57.20
36280;DHT22;22317;47.936;12.742;2022-12-29T00:25:08;-0.30;57.30
36280;DHT22;22317;47.936;12.742;2022-12-29T00:27:35;-0.30;57.30
36280;DHT22;22317;47.936;12.742;2022-12-29T00:30:21;-0.30;58.00
36280;DHT22;22317;47.936;12.742;2022-12-29T00:33:20;-0.30;57.40
36280;DHT22;22317;47.936;12.742;2022-12-29T00:38:43;-0.30;58.00
36280;DHT22;22317;47.936;12.742;2022-12-29T00:41:29;-0.40;57.30
36280;DHT22;22317;47.936;12.742;2022-12-29T00:44:14;-0.40;57.30
36280;DHT22;22317;47.936;12.742;2022-12-29T00:46:41;-0.40;57.30
36280;DHT22;22317;47.936;12.742;2022-12-29T00:49:10;-0.50;57.30
36280;DHT22;22317;47.936;12.742;2022-12-29T00:51:56;-0.50;57.30
36280;DHT22;22317;47.936;12.742;2022-12-29T00:54:22;-0.50;57.50
36280;DHT22;22317;47.936;12.742;2022-12-29T00:56:50;-0.50;57.50
36280;DHT22;22317;47.936;12.742;2022-12-29T00:59:17;-0.50;57.60
36280;DHT22;22317;47.936;12.742;2022-12-29T01:01:45;-0.50;57.50
36280;DHT22;22317;47.936;12.742;2022-12-29T01:04:11;-0.50;57.40
36280;DHT22;22317;47.936;12.742;2022-12-29T01:06:39;-0.50;57.50
36280;DHT22;22317;47.936;12.742;2022-12-29T01:09:07;-0.50;57.50
36280;DHT22;22317;47.936;12.742;2022-12-29T01:11:52;-0.50;57.40
36280;DHT22;22317;47.936;12.742;2022-12-29T01:14:18;-0.50;57.40
36280;DHT22;22317;47.936;12.742;2022-12-29T01:16:45;-0.60;64.80
36280;DHT22;22317;47.936;12.742;2022-12-29T01:19:11;-0.60;66.80
36280;DHT22;22317;47.936;12.742;2022-12-29T01:21:38;-0.60;67.50
36280;DHT22;22317;47.936;12.742;2022-12-29T01:24:03;-0.50;70.80
36280;DHT22;22317;47.936;12.742;2022-12-29T01:26:29;-0.60;70.80
36280;DHT22;22317;47.936;12.742;2022-12-29T01:28:55;-0.70;72.50
36280;DHT22;22317;47.936;12.742;2022-12-29T01:31:21;-0.70;72.70
36280;DHT22;22317;47.936;12.742;2022-12-29T01:33:47;-0.70;71.90
36280;DHT22;22317;47.936;12.742;2022-12-29T01:36:15;-0.50;71.50
36280;DHT22;22317;47.936;12.742;2022-12-29T01:38:41;-0.80;70.80
36280;DHT22;22317;47.936;12.742;2022-12-29T01:41:09;-0.70;70.70
36280;DHT22;22317;47.936;12.742;2022-12-29T01:43:57;-0.70;70.40
36280;DHT22;22317;47.936;12.742;2022-12-29T01:46:38;-0.80;69.30
36280;DHT22;22317;47.936;12.742;2022-12-29T01:51:38;-0.80;67.20
36280;DHT22;22317;47.936;12.742;2022-12-29T01:54:15;-0.80;66.20
36280;DHT22;22317;47.936;12.742;2022-12-29T01:56:42;-0.80;66.20
36280;DHT22;22317;47.936;12.742;2022-12-29T01:59:12;-0.70;65.70
36280;DHT22;22317;47.936;12.742;2022-12-29T02:01:40;-0.70;64.80
36280;DHT22;22317;47.936;12.742;2022-12-29T02:04:07;-0.80;64.80
36280;DHT22;22317;47.936;12.742;2022-12-29T02:06:41;-0.70;61.10
36280;DHT22;22317;47.936;12.742;2022-12-29T02:09:08;-0.90;58.40
36280;DHT22;22317;47.936;12.742;2022-12-29T02:11:35;-0.90;57.90
36280;DHT22;22317;47.936;12.742;2022-12-29T02:14:04;-0.80;58.60
36280;DHT22;22317;47.936;12.742;2022-12-29T02:30:45;-1.00;58.30
36280;DHT22;22317;47.936;12.742;2022-12-29T02:33:30;-0.90;58.40
36280;DHT22;22317;47.936;12.742;2022-12-29T02:39:04;-1.00;58.20
36280;DHT22;22317;47.936;12.742;2022-12-29T02:44:12;-1.00;58.20
36280;DHT22;22317;47.936;12.742;2022-12-29T02:46:49;-1.00;58.20
36280;DHT22;22317;47.936;12.742;2022-12-29T02:49:26;-1.00;58.30
36280;DHT22;22317;47.936;12.742;2022-12-29T02:52:04;-1.00;58.30
36280;DHT22;22317;47.936;12.742;2022-12-29T02:54:32;-1.00;58.30
36280;DHT22;22317;47.936;12.742;2022-12-29T02:57:12;-1.00;58.30
36280;DHT22;22317;47.936;12.742;2022-12-29T02:59:39;-1.00;58.20
36280;DHT22;22317;47.936;12.742;2022-12-29T03:02:14;-1.00;58.20
36280;DHT22;22317;47.936;12.742;2022-12-29T03:08:06;-1.00;58.50
36280;DHT22;22317;47.936;12.742;2022-12-29T03:13:26;-1.10;58.40
36280;DHT22;22317;47.936;12.742;2022-12-29T03:16:28;-1.10;58.50
36280;DHT22;22317;47.936;12.742;2022-12-29T03:21:43;-1.10;58.60
36280;DHT22;22317;47.936;12.742;2022-12-29T03:24:35;-1.10;58.60
36280;DHT22;22317;47.936;12.742;2022-12-29T03:27:06;-1.10;58.40
36280;DHT22;22317;47.936;12.742;2022-12-29T03:29:47;-1.10;58.50
36280;DHT22;22317;47.936;12.742;2022-12-29T03:32:24;-1.10;58.60
36280;DHT22;22317;47.936;12.742;2022-12-29T03:34:53;-1.00;58.50
36280;DHT22;22317;47.936;12.742;2022-12-29T03:37:28;-1.00;58.50
36280;DHT22;22317;47.936;12.742;2022-12-29T03:39:57;-1.00;58.60
36280;DHT22;22317;47.936;12.742;2022-12-29T03:42:26;-1.00;58.60
36280;DHT22;22317;47.936;12.742;2022-12-29T03:44:56;-1.00;58.50
36280;DHT22;22317;47.936;12.742;2022-12-29T03:47:23;-1.00;58.40
36280;DHT22;22317;47.936;12.742;2022-12-29T03:49:50;-1.00;58.50
36280;DHT22;22317;47.936;12.742;2022-12-29T03:52:17;-1.00;58.50
36280;DHT22;22317;47.936;12.742;2022-12-29T03:54:44;-1.00;58.60
36280;DHT22;22317;47.936;12.742;2022-12-29T03:57:11;-1.00;58.60
36280;DHT22;22317;47.936;12.742;2022-12-29T03:59:53;-1.00;58.50
36280;DHT22;22317;47.936;12.742;2022-12-29T04:02:19;-1.00;58.40
36280;DHT22;22317;47.936;12.742;2022-12-29T04:04:45;-1.00;58.50
36280;DHT22;22317;47.936;12.742;2022-12-29T04:07:11;-1.00;58.50
36280;DHT22;22317;47.936;12.742;2022-12-29T04:09:37;-1.00;58.40
36280;DHT22;22317;47.936;12.742;2022-12-29T04:12:03;-1.00;58.30
36280;DHT22;22317;47.936;12.742;2022-12-29T04:14:29;-1.00;58.40
36280;DHT22;22317;47.936;12.742;2022-12-29T04:16:55;-1.10;58.40
36280;DHT22;22317;47.936;12.742;2022-12-29T04:19:22;-1.00;58.60
36280;DHT22;22317;47.936;12.742;2022-12-29T04:21:48;-1.10;58.40
36280;DHT22;22317;47.936;12.742;2022-12-29T04:24:14;-1.10;58.40
36280;DHT22;22317;47.936;12.742;2022-12-29T04:26:41;-1.10;58.50
36280;DHT22;22317;47.936;12.742;2022-12-29T04:29:25;-1.10;58.40
36280;DHT22;22317;47.936;12.742;2022-12-29T04:32:14;-1.10;58.60
36280;DHT22;22317;47.936;12.742;2022-12-29T04:34:44;-1.20;58.60
36280;DHT22;22317;47.936;12.742;2022-12-29T04:37:11;-1.10;58.80
36280;DHT22;22317;47.936;12.742;2022-12-29T04:39:36;-1.10;58.70
36280;DHT22;22317;47.936;12.742;2022-12-29T04:42:03;-1.20;58.60
36280;DHT22;22317;47.936;12.742;2022-12-29T04:44:29;-1.20;58.60
36280;DHT22;22317;47.936;12.742;2022-12-29T04:47:04;-1.20;58.60
36280;DHT22;22317;47.936;12.742;2022-12-29T04:49:41;-1.20;58.80
36280;DHT22;22317;47.936;12.742;2022-12-29T04:52:22;-1.20;58.80
36280;DHT22;22317;47.936;12.742;2022-12-29T04:54:48;-1.10;58.80
36280;DHT22;22317;47.936;12.742;2022-12-29T04:57:17;-1.10;58.80
36280;DHT22;22317;47.936;12.742;2022-12-29T04:59:48;-1.00;58.90
36280;DHT22;22317;47.936;12.742;2022-12-29T05:02:15;-1.10;58.80
36280;DHT22;22317;47.936;12.742;2022-12-29T05:04:41;-1.10;58.80
36280;DHT22;22317;47.936;12.742;2022-12-29T05:07:07;-1.10;58.80
36280;DHT22;22317;47.936;12.742;2022-12-29T05:09:33;-1.00;58.80
36280;DHT22;22317;47.936;12.742;2022-12-29T05:12:00;-1.00;58.70
36280;DHT22;22317;47.936;12.742;2022-12-29T05:14:26;-1.00;58.70
36280;DHT22;22317;47.936;12.742;2022-12-29T05:16:52;-1.00;58.70
36280;DHT22;22317;47.936;12.742;2022-12-29T05:19:18;-1.00;58.70
36280;DHT22;22317;47.936;12.742;2022-12-29T05:21:45;-1.00;58.70
36280;DHT22;22317;47.936;12.742;2022-12-29T05:24:10;-0.80;58.90
36280;DHT22;22317;47.936;12.742;2022-12-29T05:26:36;-0.90;58.80
36280;DHT22;22317;47.936;12.742;2022-12-29T05:29:35;-0.90;58.90
36280;DHT22;22317;47.936;12.742;2022-12-29T05:32:02;-0.80;58.80
36280;DHT22;22317;47.936;12.742;2022-12-29T05:34:28;-0.80;58.80
36280;DHT22;22317;47.936;12.742;2022-12-29T05:36:53;-0.80;59.00
36280;DHT22;22317;47.936;12.742;2022-12-29T05:39:20;-0.60;59.10
36280;DHT22;22317;47.936;12.742;2022-12-29T05:41:51;-0.70;58.90
36280;DHT22;22317;47.936;12.742;2022-12-29T05:44:46;-0.70;59.00
36280;DHT22;22317;47.936;12.742;2022-12-29T05:47:36;-0.60;59.00
36280;DHT22;22317;47.936;12.742;2022-12-29T05:50:22;-0.60;59.00
36280;DHT22;22317;47.936;12.742;2022-12-29T05:53:07;-0.50;58.90
36280;DHT22;22317;47.936;12.742;2022-12-29T05:55:35;-0.40;58.90
36280;DHT22;22317;47.936;12.742;2022-12-29T05:58:01;-0.30;59.00
36280;DHT22;22317;47.936;12.742;2022-12-29T06:00:27;-0.40;59.00
36280;DHT22;22317;47.936;12.742;2022-12-29T06:02:52;-0.40;59.00
36280;DHT22;22317;47.936;12.742;2022-12-29T06:05:18;-0.30;59.00
36280;DHT22;22317;47.936;12.742;2022-12-29T06:07:44;-0.30;58.90
36280;DHT22;22317;47.936;12.742;2022-12-29T06:10:12;-0.30;59.00
36280;DHT22;22317;47.936;12.742;2022-12-29T06:12:45;-0.30;58.90
36280;DHT22;22317;47.936;12.742;2022-12-29T06:15:10;-0.30;58.90
36280;DHT22;22317;47.936;12.742;2022-12-29T06:17:39;-0.30;58.90
36280;DHT22;22317;47.936;12.742;2022-12-29T06:20:06;-0.30;59.00
36280;DHT22;22317;47.936;12.742;2022-12-29T06:22:32;-0.20;59.10
36280;DHT22;22317;47.936;12.742;2022-12-29T06:24:58;-0.20;59.10
36280;DHT22;22317;47.936;12.742;2022-12-29T06:27:24;-0.10;59.20
36280;DHT22;22317;47.936;12.742;2022-12-29T06:29:51;-0.10;59.10
36280;DHT22;22317;47.936;12.742;2022-12-29T06:32:17;-0.10;59.10
36280;DHT22;22317;47.936;12.742;2022-12-29T06:34:47;0.00;59.20
36280;DHT22;22317;47.936;12.742;2022-12-29T06:37:13;0.00;59.10
36280;DHT22;22317;47.936;12.742;2022-12-29T06:39:40;0.10;59.10
36280;DHT22;22317;47.936;12.742;2022-12-29T06:42:09;0.10;59.10
36280;DHT22;22317;47.936;12.742;2022-12-29T06:45:07;0.10;59.10
36280;DHT22;22317;47.936;12.742;2022-12-29T06:47:34;0.20;59.00
36280;DHT22;22317;47.936;12.742;2022-12-29T06:50:00;0.20;59.00
36280;DHT22;22317;47.936;12.742;2022-12-29T06:52:26;0.20;59.00
36280;DHT22;22317;47.936;12.742;2022-12-29T06:54:54;0.20;59.00
36280;DHT22;22317;47.936;12.742;2022-12-29T06:57:20;0.20;59.00
36280;DHT22;22317;47.936;12.742;2022-12-29T06:59:46;0.20;59.00
36280;DHT22;22317;47.936;12.742;2022-12-29T07:02:12;0.20;59.00
36280;DHT22;22317;47.936;12.742;2022-12-29T07:04:40;0.30;59.00
36280;DHT22;22317;47.936;12.742;2022-12-29T07:07:06;0.30;58.90
36280;DHT22;22317;47.936;12.742;2022-12-29T07:09:31;0.30;59.00
36280;DHT22;22317;47.936;12.742;2022-12-29T07:11:57;0.30;59.00
36280;DHT22;22317;47.936;12.742;2022-12-29T07:14:23;0.30;59.00
36280;DHT22;22317;47.936;12.742;2022-12-29T07:16:49;0.40;59.00
36280;DHT22;22317;47.936;12.742;2022-12-29T07:19:14;0.40;59.00
36280;DHT22;22317;47.936;12.742;2022-12-29T07:21:40;0.40;59.00
36280;DHT22;22317;47.936;12.742;2022-12-29T07:24:07;0.40;59.00
36280;DHT22;22317;47.936;12.742;2022-12-29T07:26:33;0.40;59.10
36280;DHT22;22317;47.936;12.742;2022-12-29T07:29:00;0.40;59.20
36280;DHT22;22317;47.936;12.742;2022-12-29T07:31:26;0.50;59.20
36280;DHT22;22317;47.936;12.742;2022-12-29T07:33:52;0.50;59.30
36280;DHT22;22317;47.936;12.742;2022-12-29T07:36:18;0.60;59.30
36280;DHT22;22317;47.936;12.742;2022-12-29T07:38:43;0.60;59.20
36280;DHT22;22317;47.936;12.742;2022-12-29T07:41:09;0.70;59.30
36280;DHT22;22317;47.936;12.742;2022-12-29T07:43:35;0.70;59.20
36280;DHT22;22317;47.936;12.742;2022-12-29T07:46:23;0.70;59.10
36280;DHT22;22317;47.936;12.742;2022-12-29T07:48:49;0.80;59.10
36280;DHT22;22317;47.936;12.742;2022-12-29T07:51:15;0.90;59.20
36280;DHT22;22317;47.936;12.742;2022-12-29T07:53:41;0.90;59.00
36280;DHT22;22317;47.936;12.742;2022-12-29T07:56:06;0.90;59.00
36280;DHT22;22317;47.936;12.742;2022-12-29T07:58:32;1.00;59.10
36280;DHT22;22317;47.936;12.742;2022-12-29T08:00:58;1.00;59.00
36280;DHT22;22317;47.936;12.742;2022-12-29T08:03:24;1.10;59.10
36280;DHT22;22317;47.936;12.742;2022-12-29T08:05:51;1.10;59.10
36280;DHT22;22317;47.936;12.742;2022-12-29T08:08:17;1.20;59.10
36280;DHT22;22317;47.936;12.742;2022-12-29T08:10:43;1.20;59.10
36280;DHT22;22317;47.936;12.742;2022-12-29T08:13:08;1.30;59.10
36280;DHT22;22317;47.936;12.742;2022-12-29T08:15:34;1.40;59.10
36280;DHT22;22317;47.936;12.742;2022-12-29T08:18:00;1.50;59.10
36280;DHT22;22317;47.936;12.742;2022-12-29T08:20:26;1.60;59.10
36280;DHT22;22317;47.936;12.742;2022-12-29T08:22:52;1.60;59.00
36280;DHT22;22317;47.936;12.742;2022-12-29T08:25:17;1.60;59.00
36280;DHT22;22317;47.936;12.742;2022-12-29T08:27:45;1.70;59.00
36280;DHT22;22317;47.936;12.742;2022-12-29T08:30:11;1.80;59.10
36280;DHT22;22317;47.936;12.742;2022-12-29T08:32:37;1.90;59.10
36280;DHT22;22317;47.936;12.742;2022-12-29T08:35:03;2.00;59.10
36280;DHT22;22317;47.936;12.742;2022-12-29T08:37:28;2.00;58.80
36280;DHT22;22317;47.936;12.742;2022-12-29T08:39:54;2.10;58.80
36280;DHT22;22317;47.936;12.742;2022-12-29T08:42:20;2.10;58.90
36280;DHT22;22317;47.936;12.742;2022-12-29T08:44:46;2.20;59.00
36280;DHT22;22317;47.936;12.742;2022-12-29T08:47:11;2.30;58.90
36280;DHT22;22317;47.936;12.742;2022-12-29T08:49:37;2.40;58.90
36280;DHT22;22317;47.936;12.742;2022-12-29T08:52:04;2.50;58.80
36280;DHT22;22317;47.936;12.742;2022-12-29T08:54:30;2.50;58.70
36280;DHT22;22317;47.936;12.742;2022-12-29T08:56:55;2.60;58.60
36280;DHT22;22317;47.936;12.742;2022-12-29T08:59:27;2.70;58.60
36280;DHT22;22317;47.936;12.742;2022-12-29T09:01:53;2.80;58.50
36280;DHT22;22317;47.936;12.742;2022-12-29T09:04:19;2.90;58.60
36280;DHT22;22317;47.936;12.742;2022-12-29T09:06:45;3.10;58.50
36280;DHT22;22317;47.936;12.742;2022-12-29T09:09:11;3.30;58.80
36280;DHT22;22317;47.936;12.742;2022-12-29T09:11:37;3.50;59.00
36280;DHT22;22317;47.936;12.742;2022-12-29T09:14:03;3.70;58.60
36280;DHT22;22317;47.936;12.742;2022-12-29T09:16:29;3.90;58.30
36280;DHT22;22317;47.936;12.742;2022-12-29T09:18:55;4.00;57.90
36280;DHT22;22317;47.936;12.742;2022-12-29T09:21:21;4.00;57.60
36280;DHT22;22317;47.936;12.742;2022-12-29T09:23:48;4.10;57.40
36280;DHT22;22317;47.936;12.742;2022-12-29T09:26:13;4.20;57.40
36280;DHT22;22317;47.936;12.742;2022-12-29T09:28:39;4.20;57.20
36280;DHT22;22317;47.936;12.742;2022-12-29T09:31:05;4.30;57.10
36280;DHT22;22317;47.936;12.742;2022-12-29T09:33:32;4.40;57.10
36280;DHT22;22317;47.936;12.742;2022-12-29T09:36:00;4.50;57.10
36280;DHT22;22317;47.936;12.742;2022-12-29T09:38:26;4.60;56.90
36280;DHT22;22317;47.936;12.742;2022-12-29T09:43:50;4.70;56.40
36280;DHT22;22317;47.936;12.742;2022-12-29T09:46:27;4.70;56.10
36280;DHT22;22317;47.936;12.742;2022-12-29T09:51:52;4.80;56.10
36280;DHT22;22317;47.936;12.742;2022-12-29T09:57:03;5.00;56.30
36280;DHT22;22317;47.936;12.742;2022-12-29T10:00:03;5.10;56.40
36280;DHT22;22317;47.936;12.742;2022-12-29T10:02:41;5.30;56.30
36280;DHT22;22317;47.936;12.742;2022-12-29T10:10:43;6.00;55.90
36280;DHT22;22317;47.936;12.742;2022-12-29T10:16:01;6.30;55.30
36280;DHT22;22317;47.936;12.742;2022-12-29T10:19:00;6.40;54.80
36280;DHT22;22317;47.936;12.742;2022-12-29T10:21:53;6.50;54.40
36280;DHT22;22317;47.936;12.742;2022-12-29T10:24:24;6.60;54.20
36280;DHT22;22317;47.936;12.742;2022-12-29T10:26:52;6.60;54.10
36280;DHT22;22317;47.936;12.742;2022-12-29T10:29:27;6.70;54.10
36280;DHT22;22317;47.936;12.742;2022-12-29T10:32:00;6.70;53.80
36280;DHT22;22317;47.936;12.742;2022-12-29T10:34:34;6.70;53.70
36280;DHT22;22317;47.936;12.742;2022-12-29T10:37:18;6.80;53.70
36280;DHT22;22317;47.936;12.742;2022-12-29T10:39:54;6.90;53.60
36280;DHT22;22317;47.936;12.742;2022-12-29T10:42:41;7.00;53.50
36280;DHT22;22317;47.936;12.742;2022-12-29T10:45:18;7.00;53.30
36280;DHT22;22317;47.936;12.742;2022-12-29T10:47:53;7.00;53.30
36280;DHT22;22317;47.936;12.742;2022-12-29T10:50:20;7.10;53.30
36280;DHT22;22317;47.936;12.742;2022-12-29T10:52:47;7.10;53.00
36280;DHT22;22317;47.936;12.742;2022-12-29T10:55:19;7.10;53.00
36280;DHT22;22317;47.936;12.742;2022-12-29T10:57:47;7.10;52.80
36280;DHT22;22317;47.936;12.742;2022-12-29T11:00:19;7.10;52.70
36280;DHT22;22317;47.936;12.742;2022-12-29T11:07:59;7.10;52.50
36280;DHT22;22317;47.936;12.742;2022-12-29T11:10:36;7.10;52.40
36280;DHT22;22317;47.936;12.742;2022-12-29T11:13:13;7.10;52.40
36280;DHT22;22317;47.936;12.742;2022-12-29T11:15:45;7.20;52.70
36280;DHT22;22317;47.936;12.742;2022-12-29T11:20:58;7.90;53.00
36280;DHT22;22317;47.936;12.742;2022-12-29T11:23:40;8.20;53.00
36280;DHT22;22317;47.936;12.742;2022-12-29T11:26:26;8.50;52.60
36280;DHT22;22317;47.936;12.742;2022-12-29T11:31:40;9.00;52.50
36280;DHT22;22317;47.936;12.742;2022-12-29T11:34:07;9.10;51.60
36280;DHT22;22317;47.936;12.742;2022-12-29T11:36:34;9.30;51.50
36280;DHT22;22317;47.936;12.742;2022-12-29T11:39:00;9.40;51.10
36280;DHT22;22317;47.936;12.742;2022-12-29T11:41:29;9.50;50.80
36280;DHT22;22317;47.936;12.742;2022-12-29T11:44:05;9.60;50.20
36280;DHT22;22317;47.936;12.742;2022-12-29T11:46:36;9.70;49.60
36280;DHT22;22317;47.936;12.742;2022-12-29T11:49:03;9.80;49.70
36280;DHT22;22317;47.936;12.742;2022-12-29T11:51:36;10.00;49.90
36280;DHT22;22317;47.936;12.742;2022-12-29T11:54:04;10.10;49.20
36280;DHT22;22317;47.936;12.742;2022-12-29T11:56:39;10.10;53.40
36280;DHT22;22317;47.936;12.742;2022-12-29T12:01:57;10.30;48.30
36280;DHT22;22317;47.936;12.742;2022-12-29T12:04:27;10.40;56.20
36280;DHT22;22317;47.936;12.742;2022-12-29T12:14:58;10.50;47.80
36280;DHT22;22317;47.936;12.742;2022-12-29T12:17:52;10.60;47.80
36280;DHT22;22317;47.936;12.742;2022-12-29T12:20:42;10.60;47.60
36280;DHT22;22317;47.936;12.742;2022-12-29T12:26:19;10.60;47.20
36280;DHT22;22317;47.936;12.742;2022-12-29T12:28:56;10.70;47.30
36280;DHT22;22317;47.936;12.742;2022-12-29T12:31:54;10.60;47.40
36280;DHT22;22317;47.936;12.742;2022-12-29T12:34:38;10.70;47.00
36280;DHT22;22317;47.936;12.742;2022-12-29T12:45:42;10.70;47.30
36280;DHT22;22317;47.936;12.742;2022-12-29T12:59:27;10.90;46.50
36280;DHT22;22317;47.936;12.742;2022-12-29T13:07:54;10.90;46.40
36280;DHT22;22317;47.936;12.742;2022-12-29T13:10:48;10.80;46.50
36280;DHT22;22317;47.936;12.742;2022-12-29T13:13:31;10.80;46.40
36280;DHT22;22317;47.936;12.742;2022-12-29T13:16:15;10.80;46.30
36280;DHT22;22317;47.936;12.742;2022-12-29T13:24:32;10.50;45.80
36280;DHT22;22317;47.936;12.742;2022-12-29T13:27:16;10.50;46.00
36280;DHT22;22317;47.936;12.742;2022-12-29T13:38:09;10.30;46.20
36280;DHT22;22317;47.936;12.742;2022-12-29T13:40:40;10.30;46.30
36280;DHT22;22317;47.936;12.742;2022-12-29T13:43:08;10.30;46.40
36280;DHT22;22317;47.936;12.742;2022-12-29T13:45:35;10.30;46.50
36280;DHT22;22317;47.936;12.742;2022-12-29T13:48:03;10.30;46.70
36280;DHT22;22317;47.936;12.742;2022-12-29T13:50:35;10.30;46.70
36280;DHT22;22317;47.936;12.742;2022-12-29T13:55:40;10.40;46.50
36280;DHT22;22317;47.936;12.742;2022-12-29T14:03:50;12.00;49.00
36280;DHT22;22317;47.936;12.742;2022-12-29T14:06:26;13.40;48.80
36280;DHT22;22317;47.936;12.742;2022-12-29T14:09:04;14.50;47.20
36280;DHT22;22317;47.936;12.742;2022-12-29T14:11:41;15.80;45.70
36280;DHT22;22317;47.936;12.742;2022-12-29T14:14:25;16.90;44.40
36280;DHT22;22317;47.936;12.742;2022-12-29T14:16:53;17.70;41.60
36280;DHT22;22317;47.936;12.742;2022-12-29T14:19:28;18.00;40.10
36280;DHT22;22317;47.936;12.742;2022-12-29T14:22:03;18.00;38.80
36280;DHT22;22317;47.936;12.742;2022-12-29T14:27:01;17.70;37.40
36280;DHT22;22317;47.936;12.742;2022-12-29T14:31:55;17.00;36.60
36280;DHT22;22317;47.936;12.742;2022-12-29T14:37:01;16.30;37.20
36280;DHT22;22317;47.936;12.742;2022-12-29T14:39:37;16.40;37.20
36280;DHT22;22317;47.936;12.742;2022-12-29T14:47:50;16.00;36.80
36280;DHT22;22317;47.936;12.742;2022-12-29T14:50:38;16.20;37.70
36280;DHT22;22317;47.936;12.742;2022-12-29T14:53:05;16.60;37.40
36280;DHT22;22317;47.936;12.742;2022-12-29T14:55:43;16.60;36.70
36280;DHT22;22317;47.936;12.742;2022-12-29T14:58:22;16.40;35.70
36280;DHT22;22317;47.936;12.742;2022-12-29T15:00:51;15.90;35.40
36280;DHT22;22317;47.936;12.742;2022-12-29T15:03:20;15.40;35.30
36280;DHT22;22317;47.936;12.742;2022-12-29T15:05:53;14.70;35.40
36280;DHT22;22317;47.936;12.742;2022-12-29T15:08:26;14.10;35.50
36280;DHT22;22317;47.936;12.742;2022-12-29T15:11:00;13.50;35.90
36280;DHT22;22317;47.936;12.742;2022-12-29T15:13:39;12.90;36.40
36280;DHT22;22317;47.936;12.742;2022-12-29T15:16:22;12.30;37.00
36280;DHT22;22317;47.936;12.742;2022-12-29T15:18:48;11.70;37.50
36280;DHT22;22317;47.936;12.742;2022-12-29T15:21:15;11.30;38.10
36280;DHT22;22317;47.936;12.742;2022-12-29T15:23:44;10.80;38.50
36280;DHT22;22317;47.936;12.742;2022-12-29T15:26:11;10.40;39.10
36280;DHT22;22317;47.936;12.742;2022-12-29T15:28:46;10.00;39.60
36280;DHT22;22317;47.936;12.742;2022-12-29T15:31:21;9.70;40.30
36280;DHT22;22317;47.936;12.742;2022-12-29T15:33:53;9.30;40.70
36280;DHT22;22317;47.936;12.742;2022-12-29T15:36:21;9.10;41.10
36280;DHT22;22317;47.936;12.742;2022-12-29T15:38:47;8.70;41.50
36280;DHT22;22317;47.936;12.742;2022-12-29T15:46:31;7.90;43.10
36280;DHT22;22317;47.936;12.742;2022-12-29T15:48:57;7.70;44.00
36280;DHT22;22317;47.936;12.742;2022-12-29T15:51:33;7.40;43.80
36280;DHT22;22317;47.936;12.742;2022-12-29T15:54:00;7.20;44.20
36280;DHT22;22317;47.936;12.742;2022-12-29T15:56:28;7.00;44.30
36280;DHT22;22317;47.936;12.742;2022-12-29T15:58:54;6.80;55.00
36280;DHT22;22317;47.936;12.742;2022-12-29T16:01:28;6.60;48.60
36280;DHT22;22317;47.936;12.742;2022-12-29T16:03:56;6.40;46.40
36280;DHT22;22317;47.936;12.742;2022-12-29T16:06:34;6.30;45.80
36280;DHT22;22317;47.936;12.742;2022-12-29T16:09:04;6.10;48.20
36280;DHT22;22317;47.936;12.742;2022-12-29T16:11:36;5.90;46.50
36280;DHT22;22317;47.936;12.742;2022-12-29T16:14:15;5.80;47.60
36280;DHT22;22317;47.936;12.742;2022-12-29T16:16:43;5.70;52.90
36280;DHT22;22317;47.936;12.742;2022-12-29T16:19:36;5.60;60.20
36280;DHT22;22317;47.936;12.742;2022-12-29T16:22:09;5.50;63.40
36280;DHT22;22317;47.936;12.742;2022-12-29T16:29:33;5.00;47.80
36280;DHT22;22317;47.936;12.742;2022-12-29T16:32:00;4.90;48.10
36280;DHT22;22317;47.936;12.742;2022-12-29T16:39:47;4.50;48.70
36280;DHT22;22317;47.936;12.742;2022-12-29T16:50:30;4.10;49.50
36280;DHT22;22317;47.936;12.742;2022-12-29T16:52:57;4.10;49.70
36280;DHT22;22317;47.936;12.742;2022-12-29T16:55:23;4.00;49.70
36280;DHT22;22317;47.936;12.742;2022-12-29T16:57:52;3.90;49.80
36280;DHT22;22317;47.936;12.742;2022-12-29T17:00:27;3.90;49.90
36280;DHT22;22317;47.936;12.742;2022-12-29T17:02:57;3.80;50.00
36280;DHT22;22317;47.936;12.742;2022-12-29T17:05:23;3.80;50.20
36280;DHT22;22317;47.936;12.742;2022-12-29T17:07:49;3.70;50.20
36280;DHT22;22317;47.936;12.742;2022-12-29T17:10:16;3.70;50.40
36280;DHT22;22317;47.936;12.742;2022-12-29T17:12:44;3.60;50.40
36280;DHT22;22317;47.936;12.742;2022-12-29T17:18:06;3.50;50.70
36280;DHT22;22317;47.936;12.742;2022-12-29T17:20:35;3.40;50.80
36280;DHT22;22317;47.936;12.742;2022-12-29T17:23:01;3.40;50.90
36280;DHT22;22317;47.936;12.742;2022-12-29T17:25:33;3.30;51.00
36280;DHT22;22317;47.936;12.742;2022-12-29T17:28:02;3.30;51.10
36280;DHT22;22317;47.936;12.742;2022-12-29T17:30:29;3.20;51.10
36280;DHT22;22317;47.936;12.742;2022-12-29T17:33:17;3.10;51.10
36280;DHT22;22317;47.936;12.742;2022-12-29T17:35:44;3.10;51.50
36280;DHT22;22317;47.936;12.742;2022-12-29T17:40:43;3.10;51.70
36280;DHT22;22317;47.936;12.742;2022-12-29T17:43:12;3.10;51.80
36280;DHT22;22317;47.936;12.742;2022-12-29T17:45:38;3.10;51.90
36280;DHT22;22317;47.936;12.742;2022-12-29T17:48:11;3.10;52.00
36280;DHT22;22317;47.936;12.742;2022-12-29T17:50:37;3.10;51.90
36280;DHT22;22317;47.936;12.742;2022-12-29T17:53:06;3.10;51.90
36280;DHT22;22317;47.936;12.742;2022-12-29T17:55:33;3.00;51.80
36280;DHT22;22317;47.936;12.742;2022-12-29T17:57:59;2.90;51.90
36280;DHT22;22317;47.936;12.742;2022-12-29T18:00:27;2.90;52.00
36280;DHT22;22317;47.936;12.742;2022-12-29T18:02:58;2.90;52.20
36280;DHT22;22317;47.936;12.742;2022-12-29T18:05:26;2.90;52.30
36280;DHT22;22317;47.936;12.742;2022-12-29T18:07:54;2.90;52.40
36280;DHT22;22317;47.936;12.742;2022-12-29T18:10:21;2.90;52.40
36280;DHT22;22317;47.936;12.742;2022-12-29T18:12:49;2.90;52.50
36280;DHT22;22317;47.936;12.742;2022-12-29T18:17:44;2.90;52.50
36280;DHT22;22317;47.936;12.742;2022-12-29T18:20:10;3.00;52.60
36280;DHT22;22317;47.936;12.742;2022-12-29T18:22:36;2.80;52.40
36280;DHT22;22317;47.936;12.742;2022-12-29T18:25:02;2.80;52.60
36280;DHT22;22317;47.936;12.742;2022-12-29T18:27:28;2.70;52.60
36280;DHT22;22317;47.936;12.742;2022-12-29T18:29:54;2.70;52.60
36280;DHT22;22317;47.936;12.742;2022-12-29T18:32:19;2.70;52.70
36280;DHT22;22317;47.936;12.742;2022-12-29T18:34:46;2.60;52.70